createdAt,value
2023-03-30T00:01:12.653Z,6.10
2023-03-30T00:03:40.144Z,6.14
2023-03-30T00:06:09.249Z,6.12
2023-03-30T00:08:38.161Z,6.02
2023-03-30T00:11:09.463Z,6.01
2023-03-30T00:13:38.633Z,6.03
2023-03-30T00:16:08.551Z,5.95
2023-03-30T00:18:39.793Z,5.90
2023-03-30T00:21:12.918Z,5.83
2023-03-30T00:23:42.495Z,5.84
2023-03-30T00:26:10.077Z,5.93
2023-03-30T00:28:37.629Z,5.90
2023-03-30T00:31:05.237Z,5.82
2023-03-30T00:33:44.832Z,5.81
2023-03-30T00:36:15.053Z,5.86
2023-03-30T00:38:42.727Z,5.82
2023-03-30T00:41:10.258Z,5.87
2023-03-30T00:43:59.089Z,5.79
2023-03-30T00:46:27.179Z,5.74
2023-03-30T00:49:05.580Z,5.76
2023-03-30T00:51:40.827Z,5.64
2023-03-30T00:54:13.789Z,5.60
2023-03-30T00:56:41.406Z,5.66
2023-03-30T00:59:10.662Z,5.61
2023-03-30T01:01:40.965Z,5.53
2023-03-30T01:04:10.289Z,5.53
2023-03-30T01:06:41.058Z,5.52
2023-03-30T01:09:08.984Z,5.52
2023-03-30T01:11:36.890Z,5.49
2023-03-30T01:14:08.557Z,5.47
2023-03-30T01:17:01.933Z,5.55
2023-03-30T01:20:26.809Z,5.61
2023-03-30T01:23:27.525Z,5.57
2023-03-30T01:26:21.058Z,5.56
2023-03-30T01:29:25.318Z,5.56
2023-03-30T01:32:26.685Z,5.51
2023-03-30T01:35:17.038Z,5.59
2023-03-30T01:38:02.632Z,5.52
2023-03-30T01:40:33.767Z,5.63
2023-03-30T01:43:21.082Z,5.59
2023-03-30T01:46:03.559Z,5.60
2023-03-30T01:48:59.507Z,5.59
2023-03-30T01:52:16.675Z,5.61
2023-03-30T01:55:03.158Z,5.56
2023-03-30T01:57:48.340Z,5.58
2023-03-30T02:00:20.728Z,5.63
2023-03-30T02:03:20.190Z,5.58
2023-03-30T02:05:51.846Z,5.57
2023-03-30T02:08:25.355Z,5.59
2023-03-30T02:10:55.360Z,5.57
2023-03-30T02:13:23.983Z,5.58
2023-03-30T02:15:58.149Z,5.53
2023-03-30T02:18:27.854Z,5.61
2023-03-30T02:20:59.148Z,5.57
2023-03-30T02:23:34.061Z,5.52
2023-03-30T02:26:02.295Z,5.59
2023-03-30T02:28:31.026Z,5.57
2023-03-30T02:30:58.674Z,5.54
2023-03-30T02:33:42.896Z,5.61
2023-03-30T02:36:37.780Z,5.62
2023-03-30T02:39:07.963Z,5.57
2023-03-30T02:42:16.996Z,5.53
2023-03-30T02:45:32.381Z,5.59
2023-03-30T02:48:42.791Z,5.60
2023-03-30T02:51:39.560Z,5.70
2023-03-30T02:54:23.398Z,5.65
2023-03-30T02:57:16.641Z,5.70
2023-03-30T03:00:00.206Z,5.62
2023-03-30T03:02:35.841Z,5.68
2023-03-30T03:05:04.445Z,5.64
2023-03-30T03:07:34.178Z,5.66
2023-03-30T03:10:01.680Z,5.73
2023-03-30T03:12:30.026Z,5.80
2023-03-30T03:14:58.126Z,5.85
2023-03-30T03:17:29.834Z,5.91
2023-03-30T03:19:58.027Z,5.93
2023-03-30T03:22:26.506Z,5.99
2023-03-30T03:24:56.209Z,5.92
2023-03-30T03:27:24.067Z,5.98
2023-03-30T03:29:51.431Z,5.96
2023-03-30T03:32:18.858Z,5.94
2023-03-30T03:34:46.350Z,5.97
2023-03-30T03:37:21.101Z,5.98
2023-03-30T03:39:48.421Z,6.04
2023-03-30T03:42:15.982Z,6.03
2023-03-30T03:44:43.309Z,5.99
2023-03-30T03:47:16.015Z,5.94
2023-03-30T03:49:49.979Z,5.91
2023-03-30T03:52:17.679Z,6.03
2023-03-30T03:54:44.912Z,5.99
2023-03-30T03:57:12.368Z,5.94
2023-03-30T03:59:39.945Z,6.05
2023-03-30T04:02:07.076Z,6.09
2023-03-30T04:04:34.411Z,6.08
2023-03-30T04:07:03.712Z,6.04
2023-03-30T04:09:31.334Z,6.07
2023-03-30T04:11:58.829Z,6.09
2023-03-30T04:14:26.290Z,6.13
2023-03-30T04:16:53.581Z,6.06
2023-03-30T04:19:25.521Z,6.07
2023-03-30T04:21:53.270Z,6.00
2023-03-30T04:24:20.664Z,6.03
2023-03-30T04:26:49.166Z,6.15
2023-03-30T04:29:18.167Z,6.09
2023-03-30T04:31:51.146Z,6.05
2023-03-30T04:34:22.092Z,6.13
2023-03-30T04:36:49.472Z,6.15
2023-03-30T04:39:18.464Z,6.19
2023-03-30T04:41:46.317Z,6.21
2023-03-30T04:44:14.560Z,6.19
2023-03-30T04:46:42.375Z,6.27
2023-03-30T04:49:09.445Z,6.26
2023-03-30T04:51:37.721Z,6.25
2023-03-30T04:54:05.212Z,6.27
2023-03-30T04:56:32.437Z,6.29
2023-03-30T04:59:00.765Z,6.33
2023-03-30T05:01:28.704Z,6.35
2023-03-30T05:03:56.409Z,6.28
2023-03-30T05:06:24.687Z,6.34
2023-03-30T05:08:54.179Z,6.39
2023-03-30T05:11:21.616Z,6.49
2023-03-30T05:13:52.310Z,6.46
2023-03-30T05:16:19.831Z,6.52
2023-03-30T05:18:49.348Z,6.60
2023-03-30T05:21:26.686Z,6.61
2023-03-30T05:23:55.877Z,6.70
2023-03-30T05:26:24.203Z,6.79
2023-03-30T05:28:51.786Z,6.78
2023-03-30T05:31:20.072Z,6.83
2023-03-30T05:33:48.064Z,6.82
2023-03-30T05:36:15.323Z,7.02
2023-03-30T05:38:42.679Z,7.09
2023-03-30T05:41:10.184Z,7.06
2023-03-30T05:43:37.721Z,7.07
2023-03-30T05:46:07.069Z,7.11
2023-03-30T05:48:34.466Z,7.12
2023-03-30T05:51:02.544Z,7.26
2023-03-30T05:53:29.915Z,7.31
2023-03-30T05:55:57.513Z,7.31
2023-03-30T05:58:24.912Z,7.40
2023-03-30T06:00:52.949Z,7.51
2023-03-30T06:03:20.333Z,7.60
2023-03-30T06:05:48.307Z,7.72
2023-03-30T06:08:15.866Z,7.71
2023-03-30T06:10:53.234Z,7.73
2023-03-30T06:13:20.468Z,7.73
2023-03-30T06:15:48.046Z,7.70
2023-03-30T06:18:15.800Z,7.71
2023-03-30T06:20:48.068Z,7.80
2023-03-30T06:23:15.945Z,7.76
2023-03-30T06:25:46.762Z,7.68
2023-03-30T06:28:14.372Z,7.80
2023-03-30T06:30:42.732Z,7.87
2023-03-30T06:33:10.112Z,7.97
2023-03-30T06:35:38.043Z,8.06
2023-03-30T06:38:05.188Z,8.20
2023-03-30T06:40:32.563Z,8.12
2023-03-30T06:43:00.126Z,8.11
2023-03-30T06:45:28.109Z,8.24
2023-03-30T06:47:56.568Z,8.42
2023-03-30T06:50:24.214Z,8.49
2023-03-30T06:52:51.550Z,8.52
2023-03-30T06:55:18.850Z,8.60
2023-03-30T06:57:46.360Z,8.73
2023-03-30T07:00:16.295Z,8.88
2023-03-30T07:02:43.626Z,9.04
2023-03-30T07:05:15.971Z,9.16
2023-03-30T07:07:48.933Z,9.26
2023-03-30T07:10:16.554Z,9.41
2023-03-30T07:12:43.811Z,9.47
2023-03-30T07:15:11.689Z,9.39
2023-03-30T07:17:41.580Z,9.50
2023-03-30T07:20:11.127Z,9.45
2023-03-30T07:22:39.347Z,9.46
2023-03-30T07:25:07.356Z,9.46
2023-03-30T07:27:36.425Z,9.53
2023-03-30T07:30:17.856Z,9.57
2023-03-30T07:32:50.810Z,9.72
2023-03-30T07:35:19.648Z,9.68
2023-03-30T07:37:50.756Z,9.75
2023-03-30T07:40:19.936Z,9.82
2023-03-30T07:42:48.092Z,9.78
2023-03-30T07:45:16.640Z,9.78
2023-03-30T07:47:44.245Z,9.91
2023-03-30T07:50:11.743Z,10.04
2023-03-30T07:52:45.549Z,10.17
2023-03-30T07:55:13.501Z,10.26
2023-03-30T07:57:40.958Z,10.29
2023-03-30T08:00:10.785Z,10.29
2023-03-30T08:02:38.289Z,10.15
2023-03-30T08:05:06.943Z,10.29
2023-03-30T08:07:35.788Z,10.39
2023-03-30T08:10:04.543Z,10.43
2023-03-30T08:12:32.078Z,10.43
2023-03-30T08:14:59.485Z,10.39
2023-03-30T08:17:27.141Z,10.40
2023-03-30T08:19:56.470Z,10.44
2023-03-30T08:22:29.994Z,10.43
2023-03-30T08:25:04.195Z,10.50
2023-03-30T08:27:31.834Z,10.64
2023-03-30T08:30:01.297Z,10.79
2023-03-30T08:32:28.589Z,10.87
2023-03-30T08:34:55.952Z,10.82
2023-03-30T08:37:23.556Z,10.92
2023-03-30T08:39:54.017Z,10.95
2023-03-30T08:42:58.613Z,10.90
2023-03-30T08:45:26.844Z,10.96
2023-03-30T08:47:55.009Z,10.96
2023-03-30T08:50:38.111Z,10.90
2023-03-30T08:53:07.602Z,10.98
2023-03-30T08:55:54.287Z,11.26
2023-03-30T08:58:55.244Z,11.23
2023-03-30T09:01:59.649Z,10.97
2023-03-30T09:04:39.837Z,10.84
2023-03-30T09:07:29.188Z,11.14
2023-03-30T09:09:57.808Z,11.25
2023-03-30T09:12:48.476Z,11.15
2023-03-30T09:15:17.664Z,11.39
2023-03-30T09:18:08.079Z,11.69
2023-03-30T09:20:39.135Z,11.88
2023-03-30T09:23:13.885Z,12.18
2023-03-30T09:26:07.004Z,12.22
2023-03-30T09:28:48.586Z,12.18
2023-03-30T09:31:36.370Z,12.07
2023-03-30T09:34:29.698Z,12.00
2023-03-30T09:37:10.352Z,12.13
2023-03-30T09:39:39.172Z,11.96
2023-03-30T09:42:19.028Z,12.05
2023-03-30T09:44:55.951Z,12.25
2023-03-30T09:47:29.158Z,12.82
2023-03-30T09:50:06.192Z,13.29
2023-03-30T09:52:39.174Z,13.62
2023-03-30T09:55:21.941Z,13.96
2023-03-30T09:57:53.849Z,13.65
2023-03-30T10:00:34.533Z,13.95
2023-03-30T10:03:07.180Z,14.08
2023-03-30T10:05:36.936Z,13.90
2023-03-30T10:08:18.014Z,13.71
2023-03-30T10:10:45.648Z,14.08
2023-03-30T10:13:16.798Z,14.37
2023-03-30T10:15:50.211Z,14.30
2023-03-30T10:18:38.454Z,14.69
2023-03-30T10:21:23.128Z,14.65
2023-03-30T10:24:04.833Z,14.53
2023-03-30T10:26:34.908Z,14.58
2023-03-30T10:29:08.230Z,14.42
2023-03-30T10:31:38.060Z,14.55
2023-03-30T10:34:14.962Z,14.92
2023-03-30T10:36:42.234Z,14.87
2023-03-30T10:39:18.197Z,14.70
2023-03-30T10:41:49.052Z,14.70
2023-03-30T10:44:36.157Z,14.61
2023-03-30T10:47:18.019Z,14.69
2023-03-30T10:49:53.433Z,14.73
2023-03-30T10:52:52.000Z,14.88
2023-03-30T10:55:31.855Z,15.07
2023-03-30T10:58:37.355Z,15.08
2023-03-30T11:01:18.776Z,15.09
2023-03-30T11:03:52.356Z,15.00
2023-03-30T11:06:28.802Z,14.98
2023-03-30T11:09:06.334Z,15.12
2023-03-30T11:11:51.640Z,15.22
2023-03-30T11:14:55.674Z,15.28
2023-03-30T11:17:54.554Z,15.47
2023-03-30T11:20:47.773Z,15.55
2023-03-30T11:23:55.705Z,15.60
2023-03-30T11:26:43.389Z,15.85
2023-03-30T11:29:27.344Z,15.72
2023-03-30T11:32:17.606Z,15.77
2023-03-30T11:35:05.908Z,15.96
2023-03-30T11:37:48.694Z,16.20
2023-03-30T11:40:47.237Z,15.97
2023-03-30T11:43:18.067Z,15.58
2023-03-30T11:46:05.454Z,15.35
2023-03-30T11:49:05.907Z,15.37
2023-03-30T11:51:54.347Z,15.23
2023-03-30T11:55:01.788Z,15.03
2023-03-30T11:57:51.681Z,14.87
2023-03-30T12:00:41.364Z,14.76
2023-03-30T12:03:40.408Z,14.66
2023-03-30T12:06:28.619Z,14.56
2023-03-30T12:09:05.355Z,14.57
2023-03-30T12:11:51.081Z,14.57
2023-03-30T12:14:47.511Z,14.62
2023-03-30T12:17:33.689Z,14.61
2023-03-30T12:20:09.771Z,14.61
2023-03-30T12:23:01.611Z,14.66
2023-03-30T12:25:45.395Z,14.66
2023-03-30T12:28:17.047Z,14.74
2023-03-30T12:30:56.769Z,14.82
2023-03-30T12:33:36.707Z,14.70
2023-03-30T12:36:40.228Z,14.56
2023-03-30T12:39:49.491Z,14.56
2023-03-30T12:42:37.870Z,14.49
2023-03-30T12:45:22.198Z,14.46
2023-03-30T12:48:08.001Z,14.36
2023-03-30T12:50:59.811Z,14.23
2023-03-30T12:53:58.746Z,14.24
2023-03-30T12:56:37.246Z,14.16
2023-03-30T12:59:15.841Z,14.15
2023-03-30T13:02:12.112Z,14.13
2023-03-30T13:04:44.061Z,13.98
2023-03-30T13:07:22.314Z,13.93
2023-03-30T13:09:59.744Z,13.82
2023-03-30T13:12:31.579Z,13.83
2023-03-30T13:15:03.185Z,13.57
2023-03-30T13:18:01.734Z,13.23
2023-03-30T13:20:56.320Z,13.00
2023-03-30T13:23:23.769Z,12.91
2023-03-30T13:26:09.319Z,12.73
2023-03-30T13:28:57.514Z,12.44
2023-03-30T13:32:02.498Z,12.39
2023-03-30T13:34:51.454Z,12.05
2023-03-30T13:38:07.613Z,12.16
2023-03-30T13:40:48.787Z,12.11
2023-03-30T13:43:50.911Z,11.95
2023-03-30T13:46:28.297Z,12.02
2023-03-30T13:49:19.045Z,12.00
2023-03-30T13:51:47.854Z,11.89
2023-03-30T13:54:22.176Z,11.80
2023-03-30T13:56:57.852Z,11.70
2023-03-30T13:59:32.144Z,11.63
2023-03-30T14:02:01.755Z,11.50
2023-03-30T14:04:39.361Z,11.45
2023-03-30T14:07:19.542Z,11.50
2023-03-30T14:10:12.902Z,11.48
2023-03-30T14:12:42.021Z,11.49
2023-03-30T14:15:38.077Z,11.50
2023-03-30T14:18:05.899Z,11.53
2023-03-30T14:21:15.934Z,11.59
2023-03-30T14:23:51.227Z,11.57
2023-03-30T14:26:29.641Z,11.53
2023-03-30T14:29:10.775Z,11.56
2023-03-30T14:31:40.269Z,11.55
2023-03-30T14:34:34.325Z,11.47
2023-03-30T14:37:12.436Z,11.43
2023-03-30T14:39:50.135Z,11.41
2023-03-30T14:42:24.883Z,11.37
2023-03-30T14:44:55.888Z,11.30
2023-03-30T14:47:30.098Z,11.27
2023-03-30T14:50:01.705Z,11.29
2023-03-30T14:52:38.185Z,11.23
2023-03-30T14:55:18.261Z,11.18
2023-03-30T14:57:47.320Z,11.13
2023-03-30T15:00:20.639Z,11.09
2023-03-30T15:02:58.980Z,11.07
2023-03-30T15:05:32.825Z,11.05
2023-03-30T15:08:02.479Z,11.00
2023-03-30T15:10:44.485Z,10.91
2023-03-30T15:13:28.457Z,10.90
2023-03-30T15:15:57.228Z,10.89
2023-03-30T15:18:27.421Z,10.88
2023-03-30T15:20:56.897Z,10.96
2023-03-30T15:23:26.372Z,10.98
2023-03-30T15:25:57.648Z,10.95
2023-03-30T15:28:25.341Z,10.91
2023-03-30T15:30:54.013Z,10.88
2023-03-30T15:33:36.517Z,10.91
2023-03-30T15:36:18.638Z,10.91
2023-03-30T15:38:59.049Z,10.88
2023-03-30T15:42:01.750Z,10.88
2023-03-30T15:44:37.926Z,10.86
2023-03-30T15:47:20.099Z,10.88
2023-03-30T15:49:52.014Z,10.86
2023-03-30T15:52:43.524Z,10.81
2023-03-30T15:55:21.558Z,10.84
2023-03-30T15:57:52.459Z,10.80
2023-03-30T16:00:27.535Z,10.79
2023-03-30T16:03:00.561Z,10.76
2023-03-30T16:05:34.278Z,10.71
2023-03-30T16:08:02.949Z,10.69
2023-03-30T16:10:34.002Z,10.63
2023-03-30T16:13:02.471Z,10.54
2023-03-30T16:15:33.257Z,10.46
2023-03-30T16:18:01.439Z,10.43
2023-03-30T16:20:32.233Z,10.40
2023-03-30T16:23:00.074Z,10.42
2023-03-30T16:28:01.197Z,10.32
2023-03-30T16:30:34.894Z,10.31
2023-03-30T16:33:03.196Z,10.25
2023-03-30T16:35:32.678Z,10.18
2023-03-30T16:38:06.450Z,10.17
2023-03-30T16:40:43.151Z,10.07
2023-03-30T16:43:13.256Z,10.07
2023-03-30T16:45:42.123Z,10.06
2023-03-30T16:48:15.471Z,10.12
2023-03-30T16:50:45.754Z,10.09
2023-03-30T16:53:14.661Z,10.04
2023-03-30T16:55:45.954Z,10.00
2023-03-30T16:58:15.808Z,10.02
2023-03-30T17:00:50.127Z,10.05
2023-03-30T17:03:19.086Z,10.05
2023-03-30T17:05:49.239Z,10.02
2023-03-30T17:08:23.849Z,10.03
2023-03-30T17:10:53.830Z,10.01
2023-03-30T17:13:22.427Z,10.00
2023-03-30T17:15:50.097Z,9.98
2023-03-30T17:18:26.304Z,10.02
2023-03-30T17:20:56.679Z,10.05
2023-03-30T17:23:36.967Z,10.08
2023-03-30T17:26:05.657Z,10.08
2023-03-30T17:28:35.901Z,10.06
2023-03-30T17:31:09.163Z,10.07
2023-03-30T17:33:38.510Z,10.05
2023-03-30T17:36:27.195Z,10.06
2023-03-30T17:38:56.818Z,10.08
2023-03-30T17:41:25.089Z,10.06
2023-03-30T17:43:55.724Z,10.05
2023-03-30T17:46:24.154Z,10.08
2023-03-30T17:48:52.802Z,10.08
2023-03-30T17:51:21.360Z,10.09
2023-03-30T17:53:49.347Z,10.09
2023-03-30T17:56:31.908Z,10.13
2023-03-30T17:59:00.612Z,10.11
2023-03-30T18:01:28.619Z,10.13
2023-03-30T18:03:57.260Z,10.13
2023-03-30T18:06:27.072Z,10.14
2023-03-30T18:08:56.084Z,10.17
2023-03-30T18:11:24.375Z,10.17
2023-03-30T18:13:53.952Z,10.17
2023-03-30T18:16:25.919Z,10.18
2023-03-30T18:18:57.932Z,10.18
2023-03-30T18:21:27.104Z,10.16
2023-03-30T18:23:55.508Z,10.14
2023-03-30T18:26:23.789Z,10.14
2023-03-30T18:28:51.950Z,10.17
2023-03-30T18:31:23.113Z,10.24
2023-03-30T18:33:55.806Z,10.29
2023-03-30T18:36:25.005Z,10.29
2023-03-30T18:38:55.862Z,10.38
2023-03-30T18:41:23.881Z,10.36
2023-03-30T18:43:53.174Z,10.40
2023-03-30T18:46:23.842Z,10.36
2023-03-30T18:48:52.064Z,10.35
2023-03-30T18:51:22.360Z,10.32
2023-03-30T18:53:50.425Z,10.33
2023-03-30T18:56:18.921Z,10.25
2023-03-30T18:58:49.230Z,10.27
2023-03-30T19:01:18.310Z,10.18
2023-03-30T19:03:47.427Z,10.15
2023-03-30T19:06:22.838Z,10.14
2023-03-30T19:08:52.012Z,10.19
2023-03-30T19:11:28.343Z,10.29
2023-03-30T19:13:57.274Z,10.32
2023-03-30T19:16:26.130Z,10.39
2023-03-30T19:18:56.198Z,10.41
2023-03-30T19:21:26.242Z,10.43
2023-03-30T19:23:57.473Z,10.39
2023-03-30T19:26:26.788Z,10.31
2023-03-30T19:28:55.069Z,10.18
2023-03-30T19:31:23.772Z,10.05
2023-03-30T19:33:52.445Z,10.04
2023-03-30T19:36:24.035Z,10.13
2023-03-30T19:38:56.778Z,10.23
2023-03-30T19:41:32.749Z,10.34
2023-03-30T19:44:02.345Z,10.38
2023-03-30T19:46:38.650Z,10.40
2023-03-30T19:49:07.922Z,10.35
2023-03-30T19:51:36.527Z,10.30
2023-03-30T19:54:11.254Z,10.19
2023-03-30T19:56:40.178Z,10.21
2023-03-30T19:59:09.969Z,10.18
2023-03-30T20:01:38.685Z,10.15
2023-03-30T20:04:13.571Z,10.17
2023-03-30T20:06:41.615Z,10.18
2023-03-30T20:09:10.036Z,10.21
2023-03-30T20:11:37.960Z,10.20
2023-03-30T20:14:07.782Z,10.16
2023-03-30T20:16:35.917Z,10.13
2023-03-30T20:19:15.945Z,10.09
2023-03-30T20:21:50.035Z,10.06
2023-03-30T20:24:17.778Z,10.01
2023-03-30T20:26:47.058Z,10.08
2023-03-30T20:29:14.781Z,10.01
2023-03-30T20:31:42.948Z,10.03
2023-03-30T20:34:13.069Z,9.93
2023-03-30T20:36:40.800Z,9.98
2023-03-30T20:39:10.206Z,9.81
2023-03-30T20:41:40.559Z,9.80
2023-03-30T20:44:11.752Z,9.80
2023-03-30T20:46:40.413Z,9.67
2023-03-30T20:49:10.361Z,9.60
2023-03-30T20:51:39.929Z,9.70
2023-03-30T20:54:07.528Z,9.73
2023-03-30T20:56:34.931Z,9.80
2023-03-30T20:59:02.603Z,9.97
2023-03-30T21:01:32.060Z,10.00
2023-03-30T21:04:02.649Z,9.98
2023-03-30T21:06:34.104Z,10.06
2023-03-30T21:09:06.223Z,10.12
2023-03-30T21:11:39.040Z,9.99
2023-03-30T21:14:08.930Z,10.03
2023-03-30T21:16:38.208Z,9.92
2023-03-30T21:19:06.135Z,9.91
2023-03-30T21:21:35.184Z,9.64
2023-03-30T21:24:07.513Z,9.55
2023-03-30T21:26:35.842Z,9.46
2023-03-30T21:29:09.309Z,9.47
2023-03-30T21:31:36.753Z,9.40
2023-03-30T21:34:04.567Z,9.36
2023-03-30T21:36:32.230Z,9.28
2023-03-30T21:39:01.152Z,9.22
2023-03-30T21:41:30.804Z,9.34
2023-03-30T21:44:10.526Z,9.40
2023-03-30T21:46:37.909Z,9.36
2023-03-30T21:49:05.318Z,9.38
2023-03-30T21:51:32.883Z,9.18
2023-03-30T21:54:00.339Z,9.16
2023-03-30T21:56:29.966Z,9.14
2023-03-30T21:58:58.331Z,9.05
2023-03-30T22:01:31.807Z,9.02
2023-03-30T22:03:59.510Z,8.98
2023-03-30T22:06:28.784Z,9.02
2023-03-30T22:08:56.397Z,8.92
2023-03-30T22:11:26.442Z,8.85
2023-03-30T22:13:55.747Z,8.81
2023-03-30T22:16:38.005Z,8.70
2023-03-30T22:19:05.593Z,8.59
2023-03-30T22:21:35.826Z,8.59
2023-03-30T22:24:07.630Z,8.53
2023-03-30T22:26:36.534Z,8.53
2023-03-30T22:29:05.334Z,8.50
2023-03-30T22:31:33.905Z,8.51
2023-03-30T22:34:01.730Z,8.49
2023-03-30T22:36:31.286Z,8.50
2023-03-30T22:39:05.619Z,8.55
2023-03-30T22:41:35.732Z,8.48
2023-03-30T22:44:05.211Z,8.35
2023-03-30T22:46:35.114Z,8.39
2023-03-30T22:49:14.545Z,8.37
2023-03-30T22:51:53.019Z,8.31
2023-03-30T22:54:22.718Z,8.39
2023-03-30T22:56:51.292Z,8.41
2023-03-30T22:59:20.616Z,8.36
2023-03-30T23:01:48.097Z,8.34
2023-03-30T23:04:17.377Z,8.31
2023-03-30T23:06:51.744Z,8.27
2023-03-30T23:09:23.336Z,8.30
2023-03-30T23:11:51.549Z,8.37
2023-03-30T23:14:18.653Z,8.46
2023-03-30T23:16:46.526Z,8.36
2023-03-30T23:19:15.113Z,8.38
2023-03-30T23:21:44.916Z,8.52
2023-03-30T23:24:12.245Z,8.42
2023-03-30T23:26:45.663Z,8.49
2023-03-30T23:29:13.614Z,8.42
2023-03-30T23:31:42.200Z,8.37
2023-03-30T23:34:13.282Z,8.44
2023-03-30T23:36:49.934Z,8.38
2023-03-30T23:39:20.416Z,8.35
2023-03-30T23:41:47.714Z,8.34
2023-03-30T23:44:15.274Z,8.29
2023-03-30T23:46:43.061Z,8.19
2023-03-30T23:49:11.846Z,8.29
2023-03-30T23:51:40.262Z,8.24
2023-03-30T23:54:08.687Z,8.13
2023-03-30T23:56:38.029Z,8.18
2023-03-30T23:59:09.530Z,8.17
